sensor_id;sensor_type;location;lat;lon;timestamp;pressure;altitude;pressure_sealevel;temperature;humidity
9740;BME280;4909;42.680;26.324;2023-03-19T00:01:34;99068.09;;;8.38;83.05
9740;BME280;4909;42.680;26.324;2023-03-19T00:04:00;99069.03;;;8.37;82.78
9740;BME280;4909;42.680;26.324;2023-03-19T00:06:28;99054.25;;;8.30;82.83
9740;BME280;4909;42.680;26.324;2023-03-19T00:08:55;99046.03;;;8.39;82.15
9740;BME280;4909;42.680;26.324;2023-03-19T00:11:22;99045.16;;;8.39;82.03
9740;BME280;4909;42.680;26.324;2023-03-19T00:13:50;99045.09;;;8.42;81.36
9740;BME280;4909;42.680;26.324;2023-03-19T00:16:17;99051.59;;;8.30;82.59
9740;BME280;4909;42.680;26.324;2023-03-19T00:18:44;99045.09;;;8.42;82.17
9740;BME280;4909;42.680;26.324;2023-03-19T00:21:10;99042.09;;;8.52;81.30
9740;BME280;4909;42.680;26.324;2023-03-19T00:23:39;99038.84;;;8.44;81.55
9740;BME280;4909;42.680;26.324;2023-03-19T00:26:06;99039.59;;;8.48;82.33
9740;BME280;4909;42.680;26.324;2023-03-19T00:28:33;99042.91;;;8.56;82.12
9740;BME280;4909;42.680;26.324;2023-03-19T00:31:12;99034.25;;;8.51;82.20
9740;BME280;4909;42.680;26.324;2023-03-19T00:33:39;99037.41;;;8.62;81.93
9740;BME280;4909;42.680;26.324;2023-03-19T00:36:06;99036.94;;;8.77;81.29
9740;BME280;4909;42.680;26.324;2023-03-19T00:38:34;99041.81;;;8.91;80.63
9740;BME280;4909;42.680;26.324;2023-03-19T00:41:04;99038.03;;;8.99;80.17
9740;BME280;4909;42.680;26.324;2023-03-19T00:43:32;99040.84;;;8.93;80.18
9740;BME280;4909;42.680;26.324;2023-03-19T00:45:59;99026.75;;;8.93;80.73
9740;BME280;4909;42.680;26.324;2023-03-19T00:48:26;99021.06;;;8.77;81.26
9740;BME280;4909;42.680;26.324;2023-03-19T00:50:53;99012.38;;;8.73;81.89
9740;BME280;4909;42.680;26.324;2023-03-19T00:53:20;99022.00;;;8.76;82.07
9740;BME280;4909;42.680;26.324;2023-03-19T00:55:47;99009.53;;;8.80;80.96
9740;BME280;4909;42.680;26.324;2023-03-19T00:58:15;99015.91;;;8.72;80.95
9740;BME280;4909;42.680;26.324;2023-03-19T01:00:45;99007.94;;;8.74;81.00
9740;BME280;4909;42.680;26.324;2023-03-19T01:03:11;99020.69;;;8.89;81.39
9740;BME280;4909;42.680;26.324;2023-03-19T01:05:38;99023.09;;;8.97;81.55
9740;BME280;4909;42.680;26.324;2023-03-19T01:08:05;99017.47;;;9.07;80.58
9740;BME280;4909;42.680;26.324;2023-03-19T01:10:32;99013.72;;;9.14;80.82
9740;BME280;4909;42.680;26.324;2023-03-19T01:13:00;99029.78;;;9.35;79.71
9740;BME280;4909;42.680;26.324;2023-03-19T01:15:28;99030.09;;;9.52;78.73
9740;BME280;4909;42.680;26.324;2023-03-19T01:17:55;99031.13;;;9.48;78.42
9740;BME280;4909;42.680;26.324;2023-03-19T01:20:21;99018.44;;;9.57;78.27
9740;BME280;4909;42.680;26.324;2023-03-19T01:22:48;99026.69;;;9.48;78.62
9740;BME280;4909;42.680;26.324;2023-03-19T01:25:15;99026.31;;;9.59;77.98
9740;BME280;4909;42.680;26.324;2023-03-19T01:27:42;99030.59;;;9.63;77.35
9740;BME280;4909;42.680;26.324;2023-03-19T01:30:10;99032.97;;;9.71;76.92
9740;BME280;4909;42.680;26.324;2023-03-19T01:32:38;99040.78;;;9.75;76.64
9740;BME280;4909;42.680;26.324;2023-03-19T01:35:06;99047.81;;;9.76;76.24
9740;BME280;4909;42.680;26.324;2023-03-19T01:37:33;99050.00;;;9.64;75.08
9740;BME280;4909;42.680;26.324;2023-03-19T01:40:01;99045.13;;;9.51;74.93
9740;BME280;4909;42.680;26.324;2023-03-19T01:42:28;99034.50;;;9.25;75.76
9740;BME280;4909;42.680;26.324;2023-03-19T01:44:55;99038.94;;;9.25;76.16
9740;BME280;4909;42.680;26.324;2023-03-19T01:47:28;99033.44;;;9.04;75.96
9740;BME280;4909;42.680;26.324;2023-03-19T01:49:57;99041.16;;;9.10;76.43
9740;BME280;4909;42.680;26.324;2023-03-19T01:52:30;99037.56;;;9.13;76.56
9740;BME280;4909;42.680;26.324;2023-03-19T01:54:58;99041.97;;;9.14;76.43
9740;BME280;4909;42.680;26.324;2023-03-19T01:57:28;99039.47;;;9.09;76.73
9740;BME280;4909;42.680;26.324;2023-03-19T01:59:57;99041.84;;;9.17;76.42
9740;BME280;4909;42.680;26.324;2023-03-19T02:02:27;99017.72;;;9.00;76.36
9740;BME280;4909;42.680;26.324;2023-03-19T02:04:59;99042.91;;;9.11;76.04
9740;BME280;4909;42.680;26.324;2023-03-19T02:07:28;99044.66;;;9.12;76.50
9740;BME280;4909;42.680;26.324;2023-03-19T02:09:56;99044.75;;;9.09;76.55
9740;BME280;4909;42.680;26.324;2023-03-19T02:12:24;99050.06;;;9.09;77.07
9740;BME280;4909;42.680;26.324;2023-03-19T02:14:50;99053.13;;;9.24;76.56
9740;BME280;4909;42.680;26.324;2023-03-19T02:17:19;99050.63;;;9.19;76.43
9740;BME280;4909;42.680;26.324;2023-03-19T02:19:49;99043.41;;;9.24;76.30
9740;BME280;4909;42.680;26.324;2023-03-19T02:22:22;99049.66;;;9.22;76.91
9740;BME280;4909;42.680;26.324;2023-03-19T02:24:55;99054.63;;;9.31;76.08
9740;BME280;4909;42.680;26.324;2023-03-19T02:27:25;99053.94;;;9.26;76.34
9740;BME280;4909;42.680;26.324;2023-03-19T02:29:52;99054.44;;;9.37;75.58
9740;BME280;4909;42.680;26.324;2023-03-19T02:32:19;99057.66;;;9.46;74.61
9740;BME280;4909;42.680;26.324;2023-03-19T02:34:46;99047.03;;;9.48;74.49
9740;BME280;4909;42.680;26.324;2023-03-19T02:37:15;99056.13;;;9.39;74.58
9740;BME280;4909;42.680;26.324;2023-03-19T02:39:49;99048.97;;;9.15;75.77
9740;BME280;4909;42.680;26.324;2023-03-19T02:42:18;99056.88;;;9.16;76.18
9740;BME280;4909;42.680;26.324;2023-03-19T02:44:47;99047.97;;;9.19;76.33
9740;BME280;4909;42.680;26.324;2023-03-19T02:47:14;99051.50;;;9.20;76.22
9740;BME280;4909;42.680;26.324;2023-03-19T02:49:41;99050.09;;;9.08;76.03
9740;BME280;4909;42.680;26.324;2023-03-19T02:52:08;99064.56;;;8.96;76.92
9740;BME280;4909;42.680;26.324;2023-03-19T02:54:35;99064.88;;;8.87;77.23
9740;BME280;4909;42.680;26.324;2023-03-19T02:57:02;99062.03;;;8.93;77.71
9740;BME280;4909;42.680;26.324;2023-03-19T02:59:29;99077.25;;;9.14;76.53
9740;BME280;4909;42.680;26.324;2023-03-19T03:01:58;99085.00;;;9.21;76.37
9740;BME280;4909;42.680;26.324;2023-03-19T03:04:25;99093.28;;;9.10;75.91
9740;BME280;4909;42.680;26.324;2023-03-19T03:06:53;99095.97;;;9.08;76.32
9740;BME280;4909;42.680;26.324;2023-03-19T03:09:20;99100.69;;;8.99;76.57
9740;BME280;4909;42.680;26.324;2023-03-19T03:11:47;99104.09;;;9.02;76.42
9740;BME280;4909;42.680;26.324;2023-03-19T03:14:14;99104.94;;;9.04;76.58
9740;BME280;4909;42.680;26.324;2023-03-19T03:16:41;99096.59;;;8.89;76.75
9740;BME280;4909;42.680;26.324;2023-03-19T03:19:09;99108.09;;;8.88;77.43
9740;BME280;4909;42.680;26.324;2023-03-19T03:21:36;99099.88;;;8.67;77.39
9740;BME280;4909;42.680;26.324;2023-03-19T03:24:04;99104.84;;;8.49;78.30
9740;BME280;4909;42.680;26.324;2023-03-19T03:26:31;99109.72;;;8.62;78.58
9740;BME280;4909;42.680;26.324;2023-03-19T03:28:59;99093.41;;;8.78;78.42
9740;BME280;4909;42.680;26.324;2023-03-19T03:31:25;99097.88;;;8.76;77.69
9740;BME280;4909;42.680;26.324;2023-03-19T03:33:52;99099.94;;;8.66;77.96
9740;BME280;4909;42.680;26.324;2023-03-19T03:36:20;99093.25;;;8.53;78.44
9740;BME280;4909;42.680;26.324;2023-03-19T03:38:47;99094.66;;;8.35;79.01
9740;BME280;4909;42.680;26.324;2023-03-19T03:41:14;99084.19;;;8.29;79.91
9740;BME280;4909;42.680;26.324;2023-03-19T03:43:41;99084.69;;;8.12;80.73
9740;BME280;4909;42.680;26.324;2023-03-19T03:46:08;99088.97;;;8.16;80.21
9740;BME280;4909;42.680;26.324;2023-03-19T03:48:35;99097.16;;;8.40;79.28
9740;BME280;4909;42.680;26.324;2023-03-19T03:51:02;99100.56;;;8.43;79.48
9740;BME280;4909;42.680;26.324;2023-03-19T03:53:30;99102.19;;;8.49;78.58
9740;BME280;4909;42.680;26.324;2023-03-19T03:55:56;99104.16;;;8.42;79.28
9740;BME280;4909;42.680;26.324;2023-03-19T03:58:23;99097.13;;;8.41;79.62
9740;BME280;4909;42.680;26.324;2023-03-19T04:00:50;99109.53;;;8.38;79.77
9740;BME280;4909;42.680;26.324;2023-03-19T04:03:19;99097.53;;;8.26;80.01
9740;BME280;4909;42.680;26.324;2023-03-19T04:05:46;99097.72;;;8.18;80.84
9740;BME280;4909;42.680;26.324;2023-03-19T04:08:13;99105.75;;;8.15;81.04
9740;BME280;4909;42.680;26.324;2023-03-19T04:10:42;99102.31;;;8.12;81.17
9740;BME280;4909;42.680;26.324;2023-03-19T04:13:09;99103.34;;;8.06;80.92
9740;BME280;4909;42.680;26.324;2023-03-19T04:15:36;99099.56;;;8.16;81.02
9740;BME280;4909;42.680;26.324;2023-03-19T04:18:03;99105.31;;;8.32;80.27
9740;BME280;4909;42.680;26.324;2023-03-19T04:20:30;99106.50;;;8.19;80.22
9740;BME280;4909;42.680;26.324;2023-03-19T04:22:57;99112.81;;;8.15;80.84
9740;BME280;4909;42.680;26.324;2023-03-19T04:25:24;99119.69;;;8.22;80.53
9740;BME280;4909;42.680;26.324;2023-03-19T04:27:52;99120.84;;;8.10;80.63
9740;BME280;4909;42.680;26.324;2023-03-19T04:30:19;99122.13;;;8.28;80.31
9740;BME280;4909;42.680;26.324;2023-03-19T04:32:46;99132.84;;;8.23;80.14
9740;BME280;4909;42.680;26.324;2023-03-19T04:35:13;99126.16;;;8.43;79.61
9740;BME280;4909;42.680;26.324;2023-03-19T04:37:40;99127.25;;;8.36;79.78
9740;BME280;4909;42.680;26.324;2023-03-19T04:40:08;99127.09;;;8.42;79.83
9740;BME280;4909;42.680;26.324;2023-03-19T04:42:36;99119.09;;;8.43;79.36
9740;BME280;4909;42.680;26.324;2023-03-19T04:45:05;99126.00;;;8.49;79.17
9740;BME280;4909;42.680;26.324;2023-03-19T04:47:32;99125.59;;;8.62;78.67
9740;BME280;4909;42.680;26.324;2023-03-19T04:49:59;99125.16;;;8.78;77.76
9740;BME280;4909;42.680;26.324;2023-03-19T04:52:26;99126.19;;;8.72;77.72
9740;BME280;4909;42.680;26.324;2023-03-19T04:54:53;99136.03;;;8.98;77.21
9740;BME280;4909;42.680;26.324;2023-03-19T04:57:20;99146.00;;;8.88;76.53
9740;BME280;4909;42.680;26.324;2023-03-19T04:59:47;99137.72;;;8.71;77.24
9740;BME280;4909;42.680;26.324;2023-03-19T05:02:15;99135.97;;;8.70;77.70
9740;BME280;4909;42.680;26.324;2023-03-19T05:04:42;99139.75;;;8.91;76.76
9740;BME280;4909;42.680;26.324;2023-03-19T05:07:09;99144.66;;;9.04;76.18
9740;BME280;4909;42.680;26.324;2023-03-19T05:09:36;99156.97;;;9.05;76.37
9740;BME280;4909;42.680;26.324;2023-03-19T05:12:03;99151.94;;;9.26;75.73
9740;BME280;4909;42.680;26.324;2023-03-19T05:14:30;99156.25;;;9.00;75.93
9740;BME280;4909;42.680;26.324;2023-03-19T05:16:57;99153.59;;;9.00;76.03
9740;BME280;4909;42.680;26.324;2023-03-19T05:19:25;99157.94;;;9.03;75.94
9740;BME280;4909;42.680;26.324;2023-03-19T05:21:52;99156.41;;;9.24;75.66
9740;BME280;4909;42.680;26.324;2023-03-19T05:24:19;99166.91;;;9.54;74.21
9740;BME280;4909;42.680;26.324;2023-03-19T05:26:45;99171.78;;;9.68;72.96
9740;BME280;4909;42.680;26.324;2023-03-19T05:29:12;99127.66;;;9.39;73.06
9740;BME280;4909;42.680;26.324;2023-03-19T05:31:39;99165.22;;;9.52;72.72
9740;BME280;4909;42.680;26.324;2023-03-19T05:34:06;99164.94;;;9.33;73.91
9740;BME280;4909;42.680;26.324;2023-03-19T05:36:34;99170.53;;;9.24;74.61
9740;BME280;4909;42.680;26.324;2023-03-19T05:39:01;99181.47;;;9.12;75.26
9740;BME280;4909;42.680;26.324;2023-03-19T05:41:28;99170.72;;;9.18;75.36
9740;BME280;4909;42.680;26.324;2023-03-19T05:43:55;99170.41;;;9.29;74.78
9740;BME280;4909;42.680;26.324;2023-03-19T05:46:22;99172.78;;;9.36;74.30
9740;BME280;4909;42.680;26.324;2023-03-19T05:48:49;99167.63;;;9.59;73.77
9740;BME280;4909;42.680;26.324;2023-03-19T05:51:16;99169.50;;;9.56;73.90
9740;BME280;4909;42.680;26.324;2023-03-19T05:53:44;99164.66;;;9.69;73.17
9740;BME280;4909;42.680;26.324;2023-03-19T05:56:11;99167.69;;;9.84;72.34
9740;BME280;4909;42.680;26.324;2023-03-19T05:58:38;99166.97;;;9.79;72.16
9740;BME280;4909;42.680;26.324;2023-03-19T06:01:04;99168.72;;;9.80;72.40
9740;BME280;4909;42.680;26.324;2023-03-19T06:03:31;99170.16;;;9.90;71.86
9740;BME280;4909;42.680;26.324;2023-03-19T06:05:58;99173.72;;;9.89;71.86
9740;BME280;4909;42.680;26.324;2023-03-19T06:08:25;99178.31;;;9.84;72.13
9740;BME280;4909;42.680;26.324;2023-03-19T06:10:53;99177.28;;;10.15;71.59
9740;BME280;4909;42.680;26.324;2023-03-19T06:13:22;99175.41;;;10.18;71.09
9740;BME280;4909;42.680;26.324;2023-03-19T06:15:48;99185.28;;;10.13;71.29
9740;BME280;4909;42.680;26.324;2023-03-19T06:18:16;99185.28;;;10.13;71.09
9740;BME280;4909;42.680;26.324;2023-03-19T06:20:44;99181.38;;;10.25;70.10
9740;BME280;4909;42.680;26.324;2023-03-19T06:23:11;99181.66;;;10.42;70.34
9740;BME280;4909;42.680;26.324;2023-03-19T06:25:38;99188.66;;;10.69;68.62
9740;BME280;4909;42.680;26.324;2023-03-19T06:28:06;99183.09;;;10.75;68.37
9740;BME280;4909;42.680;26.324;2023-03-19T06:30:33;99194.38;;;11.05;66.50
9740;BME280;4909;42.680;26.324;2023-03-19T06:33:00;99200.88;;;11.21;65.68
9740;BME280;4909;42.680;26.324;2023-03-19T06:35:27;99205.19;;;11.47;64.60
9740;BME280;4909;42.680;26.324;2023-03-19T06:37:53;99197.53;;;11.61;64.28
9740;BME280;4909;42.680;26.324;2023-03-19T06:40:20;99193.88;;;12.88;58.25
9740;BME280;4909;42.680;26.324;2023-03-19T06:42:47;99202.66;;;13.85;55.41
9740;BME280;4909;42.680;26.324;2023-03-19T06:45:16;99200.59;;;13.73;53.17
9740;BME280;4909;42.680;26.324;2023-03-19T06:47:44;99203.78;;;13.63;53.68
9740;BME280;4909;42.680;26.324;2023-03-19T06:50:12;99202.94;;;13.98;52.44
9740;BME280;4909;42.680;26.324;2023-03-19T06:52:39;99218.41;;;14.45;51.12
9740;BME280;4909;42.680;26.324;2023-03-19T06:55:07;99218.38;;;14.96;48.62
9740;BME280;4909;42.680;26.324;2023-03-19T06:57:35;99179.50;;;14.73;48.17
9740;BME280;4909;42.680;26.324;2023-03-19T07:00:02;99204.19;;;15.11;48.07
9740;BME280;4909;42.680;26.324;2023-03-19T07:02:30;99202.06;;;15.51;46.24
9740;BME280;4909;42.680;26.324;2023-03-19T07:04:57;99201.63;;;15.74;45.36
9740;BME280;4909;42.680;26.324;2023-03-19T07:07:24;99191.50;;;16.11;44.48
9740;BME280;4909;42.680;26.324;2023-03-19T07:09:51;99193.44;;;16.68;43.33
9740;BME280;4909;42.680;26.324;2023-03-19T07:12:18;99193.66;;;16.79;42.25
9740;BME280;4909;42.680;26.324;2023-03-19T07:14:45;99189.06;;;17.66;40.41
9740;BME280;4909;42.680;26.324;2023-03-19T07:17:12;99192.44;;;17.13;41.24
9740;BME280;4909;42.680;26.324;2023-03-19T07:19:40;99188.31;;;17.91;39.55
9740;BME280;4909;42.680;26.324;2023-03-19T07:22:07;99191.53;;;19.15;37.79
9740;BME280;4909;42.680;26.324;2023-03-19T07:24:34;99174.84;;;21.12;34.31
9740;BME280;4909;42.680;26.324;2023-03-19T07:27:01;99177.03;;;22.71;30.77
9740;BME280;4909;42.680;26.324;2023-03-19T07:29:28;99171.94;;;24.49;27.55
9740;BME280;4909;42.680;26.324;2023-03-19T07:31:55;99171.19;;;24.66;27.34
9740;BME280;4909;42.680;26.324;2023-03-19T07:34:25;99169.41;;;25.69;26.05
9740;BME280;4909;42.680;26.324;2023-03-19T07:36:53;99163.22;;;26.39;24.43
9740;BME280;4909;42.680;26.324;2023-03-19T07:39:21;99158.94;;;25.74;25.25
9740;BME280;4909;42.680;26.324;2023-03-19T07:41:47;99148.06;;;25.92;24.74
9740;BME280;4909;42.680;26.324;2023-03-19T07:44:15;99153.88;;;26.77;23.95
9740;BME280;4909;42.680;26.324;2023-03-19T07:46:42;99149.63;;;27.86;22.82
9740;BME280;4909;42.680;26.324;2023-03-19T07:49:09;99151.88;;;27.49;23.01
9740;BME280;4909;42.680;26.324;2023-03-19T07:51:36;99154.84;;;27.38;22.74
9740;BME280;4909;42.680;26.324;2023-03-19T07:54:04;99146.94;;;26.83;23.77
9740;BME280;4909;42.680;26.324;2023-03-19T07:56:31;99144.16;;;28.36;22.42
9740;BME280;4909;42.680;26.324;2023-03-19T07:58:58;99142.75;;;28.24;21.81
9740;BME280;4909;42.680;26.324;2023-03-19T08:01:26;99146.53;;;28.39;22.08
9740;BME280;4909;42.680;26.324;2023-03-19T08:03:53;99142.16;;;29.66;20.75
9740;BME280;4909;42.680;26.324;2023-03-19T08:06:20;99143.88;;;30.83;19.62
9740;BME280;4909;42.680;26.324;2023-03-19T08:08:48;99133.59;;;30.08;19.44
9740;BME280;4909;42.680;26.324;2023-03-19T08:11:16;99133.13;;;30.05;19.83
9740;BME280;4909;42.680;26.324;2023-03-19T08:13:43;99134.53;;;29.46;20.29
9740;BME280;4909;42.680;26.324;2023-03-19T08:16:10;99134.22;;;29.24;20.33
9740;BME280;4909;42.680;26.324;2023-03-19T08:18:37;99103.38;;;28.67;21.09
9740;BME280;4909;42.680;26.324;2023-03-19T08:21:05;99136.03;;;27.52;21.87
9740;BME280;4909;42.680;26.324;2023-03-19T08:23:32;99122.03;;;27.97;21.73
9740;BME280;4909;42.680;26.324;2023-03-19T08:25:59;99123.78;;;27.64;22.15
9740;BME280;4909;42.680;26.324;2023-03-19T08:28:28;99126.63;;;26.77;23.18
9740;BME280;4909;42.680;26.324;2023-03-19T08:33:40;99122.88;;;26.53;23.15
9740;BME280;4909;42.680;26.324;2023-03-19T08:36:10;99121.47;;;27.10;22.53
9740;BME280;4909;42.680;26.324;2023-03-19T08:38:37;99120.44;;;28.69;21.34
9740;BME280;4909;42.680;26.324;2023-03-19T08:41:05;99112.28;;;27.79;21.70
9740;BME280;4909;42.680;26.324;2023-03-19T08:43:35;99116.28;;;27.33;22.25
9740;BME280;4909;42.680;26.324;2023-03-19T08:46:02;99111.47;;;28.02;21.93
9740;BME280;4909;42.680;26.324;2023-03-19T08:48:30;99105.75;;;28.30;21.69
9740;BME280;4909;42.680;26.324;2023-03-19T08:50:58;99109.38;;;28.79;21.03
9740;BME280;4909;42.680;26.324;2023-03-19T08:53:26;99115.91;;;26.05;23.37
9740;BME280;4909;42.680;26.324;2023-03-19T08:55:53;99105.41;;;23.26;27.05
9740;BME280;4909;42.680;26.324;2023-03-19T08:58:21;99102.72;;;25.01;25.17
9740;BME280;4909;42.680;26.324;2023-03-19T09:00:50;99104.06;;;24.68;25.46
9740;BME280;4909;42.680;26.324;2023-03-19T09:03:19;99102.81;;;25.09;25.92
9740;BME280;4909;42.680;26.324;2023-03-19T09:05:47;99108.47;;;25.25;26.35
9740;BME280;4909;42.680;26.324;2023-03-19T09:08:16;99099.44;;;25.62;25.87
9740;BME280;4909;42.680;26.324;2023-03-19T09:10:47;99093.31;;;25.60;26.22
9740;BME280;4909;42.680;26.324;2023-03-19T09:13:16;99097.03;;;23.39;28.48
9740;BME280;4909;42.680;26.324;2023-03-19T09:15:43;99087.59;;;23.83;28.45
9740;BME280;4909;42.680;26.324;2023-03-19T09:18:11;99095.53;;;24.24;27.45
9740;BME280;4909;42.680;26.324;2023-03-19T09:20:38;99092.66;;;24.16;27.23
9740;BME280;4909;42.680;26.324;2023-03-19T09:23:05;99084.75;;;23.85;27.55
9740;BME280;4909;42.680;26.324;2023-03-19T09:25:32;99084.28;;;23.51;28.78
9740;BME280;4909;42.680;26.324;2023-03-19T09:27:58;99078.53;;;23.04;29.47
9740;BME280;4909;42.680;26.324;2023-03-19T09:30:26;99084.97;;;22.82;29.63
9740;BME280;4909;42.680;26.324;2023-03-19T09:32:53;99070.38;;;22.53;30.14
9740;BME280;4909;42.680;26.324;2023-03-19T09:35:21;99079.66;;;22.81;29.84
9740;BME280;4909;42.680;26.324;2023-03-19T09:37:48;99080.53;;;22.40;29.81
9740;BME280;4909;42.680;26.324;2023-03-19T09:40:20;99076.41;;;22.04;30.61
9740;BME280;4909;42.680;26.324;2023-03-19T09:42:57;99077.84;;;21.76;31.00
9740;BME280;4909;42.680;26.324;2023-03-19T09:45:27;99068.00;;;21.75;31.42
9740;BME280;4909;42.680;26.324;2023-03-19T09:47:57;99062.31;;;21.46;31.79
9740;BME280;4909;42.680;26.324;2023-03-19T09:50:31;99067.38;;;21.29;32.21
9740;BME280;4909;42.680;26.324;2023-03-19T09:53:05;99063.56;;;21.31;32.59
9740;BME280;4909;42.680;26.324;2023-03-19T09:55:39;99060.59;;;21.12;33.24
9740;BME280;4909;42.680;26.324;2023-03-19T09:58:12;99055.34;;;20.99;33.50
9740;BME280;4909;42.680;26.324;2023-03-19T10:00:40;99050.19;;;20.74;34.54
9740;BME280;4909;42.680;26.324;2023-03-19T10:03:21;99052.16;;;20.61;33.96
9740;BME280;4909;42.680;26.324;2023-03-19T10:05:59;99052.13;;;20.15;34.59
9740;BME280;4909;42.680;26.324;2023-03-19T10:08:40;99038.16;;;19.75;35.24
9740;BME280;4909;42.680;26.324;2023-03-19T10:11:26;99048.25;;;19.60;36.13
9740;BME280;4909;42.680;26.324;2023-03-19T10:14:10;99048.81;;;19.76;34.86
9740;BME280;4909;42.680;26.324;2023-03-19T10:16:45;99041.56;;;20.01;34.81
9740;BME280;4909;42.680;26.324;2023-03-19T10:19:19;99038.50;;;19.94;36.15
9740;BME280;4909;42.680;26.324;2023-03-19T10:21:49;99026.19;;;19.79;36.40
9740;BME280;4909;42.680;26.324;2023-03-19T10:24:24;99029.56;;;20.05;38.83
9740;BME280;4909;42.680;26.324;2023-03-19T10:26:57;99016.38;;;19.78;37.88
9740;BME280;4909;42.680;26.324;2023-03-19T10:29:24;99024.75;;;19.62;38.55
9740;BME280;4909;42.680;26.324;2023-03-19T10:31:59;99020.09;;;19.40;38.04
9740;BME280;4909;42.680;26.324;2023-03-19T10:34:30;99012.94;;;18.79;38.14
9740;BME280;4909;42.680;26.324;2023-03-19T10:37:01;98981.50;;;18.92;40.58
9740;BME280;4909;42.680;26.324;2023-03-19T10:39:31;99006.00;;;19.61;38.38
9740;BME280;4909;42.680;26.324;2023-03-19T10:42:05;99003.22;;;19.97;35.82
9740;BME280;4909;42.680;26.324;2023-03-19T10:44:36;98993.59;;;19.82;38.28
9740;BME280;4909;42.680;26.324;2023-03-19T10:47:09;98998.97;;;20.17;38.48
9740;BME280;4909;42.680;26.324;2023-03-19T10:49:36;98995.03;;;20.56;38.10
9740;BME280;4909;42.680;26.324;2023-03-19T10:52:06;99004.69;;;20.01;36.20
9740;BME280;4909;42.680;26.324;2023-03-19T10:54:43;98985.16;;;19.51;39.28
9740;BME280;4909;42.680;26.324;2023-03-19T10:57:21;98987.00;;;19.75;38.86
9740;BME280;4909;42.680;26.324;2023-03-19T10:59:48;98989.78;;;20.19;38.35
9740;BME280;4909;42.680;26.324;2023-03-19T11:02:16;98990.13;;;20.61;37.92
9740;BME280;4909;42.680;26.324;2023-03-19T11:04:44;98985.78;;;21.03;36.56
9740;BME280;4909;42.680;26.324;2023-03-19T11:07:16;98975.59;;;21.17;36.79
9740;BME280;4909;42.680;26.324;2023-03-19T11:09:46;98967.63;;;21.05;34.18
9740;BME280;4909;42.680;26.324;2023-03-19T11:12:17;98975.25;;;20.44;35.56
9740;BME280;4909;42.680;26.324;2023-03-19T11:14:46;98948.72;;;20.05;37.02
9740;BME280;4909;42.680;26.324;2023-03-19T11:17:20;98960.31;;;19.83;37.37
9740;BME280;4909;42.680;26.324;2023-03-19T11:19:51;98960.72;;;19.66;37.89
9740;BME280;4909;42.680;26.324;2023-03-19T11:22:22;98952.50;;;19.56;37.84
9740;BME280;4909;42.680;26.324;2023-03-19T11:24:52;98959.28;;;18.78;39.42
9740;BME280;4909;42.680;26.324;2023-03-19T11:27:26;98961.69;;;18.93;41.76
9740;BME280;4909;42.680;26.324;2023-03-19T11:29:54;98951.69;;;19.43;39.60
9740;BME280;4909;42.680;26.324;2023-03-19T11:32:43;98955.09;;;19.58;38.71
9740;BME280;4909;42.680;26.324;2023-03-19T11:35:18;98947.72;;;19.83;40.40
9740;BME280;4909;42.680;26.324;2023-03-19T11:37:53;98941.38;;;20.07;39.52
9740;BME280;4909;42.680;26.324;2023-03-19T11:40:30;98949.72;;;20.15;36.56
9740;BME280;4909;42.680;26.324;2023-03-19T11:43:28;98947.22;;;19.78;39.95
9740;BME280;4909;42.680;26.324;2023-03-19T11:46:08;98942.50;;;20.04;43.60
9740;BME280;4909;42.680;26.324;2023-03-19T11:48:56;98935.69;;;20.45;39.28
9740;BME280;4909;42.680;26.324;2023-03-19T11:51:34;98923.25;;;20.20;39.88
9740;BME280;4909;42.680;26.324;2023-03-19T11:54:11;98939.00;;;20.37;39.53
9740;BME280;4909;42.680;26.324;2023-03-19T11:56:47;98928.19;;;20.59;39.55
9740;BME280;4909;42.680;26.324;2023-03-19T12:02:35;98928.56;;;20.66;39.92
9740;BME280;4909;42.680;26.324;2023-03-19T12:05:15;98932.72;;;20.59;36.59
9740;BME280;4909;42.680;26.324;2023-03-19T12:07:52;98921.91;;;18.86;39.94
9740;BME280;4909;42.680;26.324;2023-03-19T12:10:32;98915.13;;;18.06;41.50
9740;BME280;4909;42.680;26.324;2023-03-19T12:13:14;98918.47;;;18.22;42.56
9740;BME280;4909;42.680;26.324;2023-03-19T12:15:50;98924.50;;;18.87;42.02
9740;BME280;4909;42.680;26.324;2023-03-19T12:18:39;98920.09;;;19.10;39.82
9740;BME280;4909;42.680;26.324;2023-03-19T12:21:14;98920.69;;;19.26;42.10
9740;BME280;4909;42.680;26.324;2023-03-19T12:23:56;98917.13;;;18.78;40.64
9740;BME280;4909;42.680;26.324;2023-03-19T12:26:34;98915.13;;;18.31;41.65
9740;BME280;4909;42.680;26.324;2023-03-19T12:29:12;98906.53;;;18.26;42.19
9740;BME280;4909;42.680;26.324;2023-03-19T12:31:58;98896.06;;;18.47;43.14
9740;BME280;4909;42.680;26.324;2023-03-19T12:34:33;98910.44;;;18.09;43.26
9740;BME280;4909;42.680;26.324;2023-03-19T12:37:13;98890.59;;;18.36;41.88
9740;BME280;4909;42.680;26.324;2023-03-19T12:39:52;98908.50;;;18.24;42.55
9740;BME280;4909;42.680;26.324;2023-03-19T12:42:23;98903.31;;;18.34;42.95
9740;BME280;4909;42.680;26.324;2023-03-19T12:44:56;98889.06;;;17.95;43.58
9740;BME280;4909;42.680;26.324;2023-03-19T12:47:25;98885.47;;;17.57;44.48
9740;BME280;4909;42.680;26.324;2023-03-19T12:49:59;98862.41;;;18.05;45.95
9740;BME280;4909;42.680;26.324;2023-03-19T12:52:32;98890.69;;;18.59;42.62
9740;BME280;4909;42.680;26.324;2023-03-19T12:55:04;98892.97;;;18.53;43.27
9740;BME280;4909;42.680;26.324;2023-03-19T12:57:40;98889.78;;;18.22;43.86
9740;BME280;4909;42.680;26.324;2023-03-19T13:00:12;98855.94;;;18.07;45.73
9740;BME280;4909;42.680;26.324;2023-03-19T13:02:46;98895.13;;;18.48;44.70
9740;BME280;4909;42.680;26.324;2023-03-19T13:05:30;98832.00;;;17.92;44.81
9740;BME280;4909;42.680;26.324;2023-03-19T13:08:02;98850.88;;;17.27;46.80
9740;BME280;4909;42.680;26.324;2023-03-19T13:10:32;98874.13;;;17.66;48.54
9740;BME280;4909;42.680;26.324;2023-03-19T13:13:16;98883.78;;;18.19;46.32
9740;BME280;4909;42.680;26.324;2023-03-19T13:15:48;98896.69;;;18.14;45.71
9740;BME280;4909;42.680;26.324;2023-03-19T13:18:27;98889.88;;;18.21;45.57
9740;BME280;4909;42.680;26.324;2023-03-19T13:21:13;98896.34;;;18.18;45.66
9740;BME280;4909;42.680;26.324;2023-03-19T13:23:44;98890.94;;;18.31;46.60
9740;BME280;4909;42.680;26.324;2023-03-19T13:26:13;98898.72;;;18.10;45.36
9740;BME280;4909;42.680;26.324;2023-03-19T13:28:58;98838.47;;;17.64;47.15
9740;BME280;4909;42.680;26.324;2023-03-19T13:31:26;98912.16;;;17.33;47.79
9740;BME280;4909;42.680;26.324;2023-03-19T13:34:00;98900.03;;;17.53;49.63